Time;durP1;ratioP1;P1;durP2;ratioP2;P2;SDS_P1;SDS_P2;PMS_P1;PMS_P2;Temp;Humidity;BMP_temperature;BMP_pressure;BME280_temperature;BME280_humidity;BME280_pressure;Samples;Min_cycle;Max_cycle;Signal;HPM_P1;HPM_P2
2021/05/24 00:02:21;;;;;;;5.95;3.08;;;;;;;16.82;44.68;98951.44;1870630;76;22133;-63
2021/05/24 00:05:12;;;;;;;5.42;2.52;;;;;;;16.76;44.79;98961.90;1760331;81;21125;-65
2021/05/24 00:08:07;;;;;;;6.30;2.92;;;;;;;16.78;44.67;98949.75;1880539;75;22175;-65
2021/05/24 00:10:45;;;;;;;9.50;3.80;;;;;;;16.76;44.42;98957.98;1854756;76;28360;-62
2021/05/24 00:13:24;;;;;;;8.13;2.90;;;;;;;16.82;44.71;98969.68;1890005;76;22266;-63
2021/05/24 00:15:59;;;;;;;5.40;3.30;;;;;;;16.81;44.96;98973.15;1870683;76;22152;-64
2021/05/24 00:18:34;;;;;;;8.83;3.60;;;;;;;16.79;45.30;98979.71;1854785;76;27890;-63
2021/05/24 00:21:10;;;;;;;8.88;4.55;;;;;;;16.84;45.44;98996.14;1870642;76;22148;-63
2021/05/24 00:23:46;;;;;;;9.00;3.87;;;;;;;16.82;45.84;98999.66;1870560;76;22571;-62
2021/05/24 00:26:21;;;;;;;13.35;7.10;;;;;;;16.82;45.88;99010.08;1854748;76;27939;-64
2021/05/24 00:28:56;;;;;;;9.80;5.85;;;;;;;16.86;45.94;99019.56;1870693;76;22224;-62
2021/05/24 00:31:32;;;;;;;7.50;3.92;;;;;;;16.88;45.91;99032.14;1889452;76;22192;-62
2021/05/24 00:34:07;;;;;;;3.05;1.12;;;;;;;16.90;46.20;99032.98;1870649;76;22531;-63
2021/05/24 00:36:41;;;;;;;8.65;3.35;;;;;;;17.03;42.08;99037.59;1889896;76;22112;-61
2021/05/24 00:39:31;;;;;;;5.45;2.60;;;;;;;17.23;43.10;99050.34;1870627;76;26023;-61
2021/05/24 00:42:06;;;;;;;8.10;3.37;;;;;;;17.18;43.11;99050.41;1870676;76;22117;-63
2021/05/24 00:44:41;;;;;;;15.03;4.08;;;;;;;17.08;42.78;99050.13;1870625;76;22136;-64
2021/05/24 00:47:16;;;;;;;9.75;3.87;;;;;;;17.00;43.83;99064.56;1870621;76;22137;-63
2021/05/24 00:50:06;;;;;;;12.25;4.17;;;;;;;16.89;44.83;99069.05;1760319;81;21579;-64
2021/05/24 00:52:41;;;;;;;9.20;3.90;;;;;;;16.84;44.95;99070.84;1870580;76;22157;-64
2021/05/24 00:55:16;;;;;;;9.00;3.52;;;;;;;16.76;45.87;99070.05;1870586;76;22156;-63
2021/05/24 00:57:50;;;;;;;9.80;3.77;;;;;;;16.72;46.08;99079.66;1870629;76;22116;-63
2021/05/24 01:00:33;;;;;;;7.35;3.52;;;;;;;16.68;47.16;99081.42;1870649;76;22145;-63
2021/05/24 01:03:10;;;;;;;7.30;3.50;;;;;;;16.72;47.99;99086.18;1870660;76;22137;-62
2021/05/24 01:05:46;;;;;;;5.87;3.08;;;;;;;16.68;50.21;99094.45;1870655;76;22536;-62
2021/05/24 01:08:31;;;;;;;9.70;3.05;;;;;;;16.56;49.97;99089.38;1760560;81;21157;-62
2021/05/24 01:11:06;;;;;;;7.08;3.70;;;;;;;16.83;50.20;99096.50;1889960;76;22562;-63
2021/05/24 01:13:47;;;;;;;5.67;3.25;;;;;;;16.75;52.61;99091.34;1869765;76;22599;-63
2021/05/24 01:16:22;;;;;;;6.62;2.85;;;;;;;16.76;52.25;99088.30;1870632;76;22149;-63
2021/05/24 01:18:57;;;;;;;10.13;3.72;;;;;;;16.68;53.80;99100.97;1870660;76;22145;-60
2021/05/24 01:21:32;;;;;;;9.13;3.80;;;;;;;16.34;55.70;99098.33;1854848;76;38731;-66
2021/05/24 01:24:14;;;;;;;8.93;3.95;;;;;;;16.14;57.05;99099.83;1889886;76;22156;-64
2021/05/24 01:26:49;;;;;;;7.92;3.47;;;;;;;16.02;57.42;99098.19;1854683;76;28360;-67
2021/05/24 01:29:32;;;;;;;6.20;2.67;;;;;;;16.07;57.94;99108.12;1889892;76;22578;-65
2021/05/24 01:32:07;;;;;;;7.70;3.25;;;;;;;16.11;57.21;99099.86;1865240;76;22578;-67
2021/05/24 01:34:48;;;;;;;9.48;3.40;;;;;;;16.27;57.67;99100.13;1889898;76;22163;-67
2021/05/24 01:37:23;;;;;;;6.22;3.10;;;;;;;16.08;58.11;99102.05;1870653;76;22116;-63
2021/05/24 01:40:05;;;;;;;5.65;2.80;;;;;;;15.84;59.25;99107.02;1860807;76;22619;-68
2021/05/24 01:42:40;;;;;;;7.37;2.67;;;;;;;15.57;60.02;99105.44;1852644;76;22202;-61
2021/05/24 01:45:34;;;;;;;4.75;2.20;;;;;;;15.44;60.40;99106.40;1861311;75;22189;-63
2021/05/24 01:48:15;;;;;;;5.80;2.90;;;;;;;15.33;60.90;99107.77;1869857;76;22186;-66
2021/05/24 01:50:51;;;;;;;6.72;2.60;;;;;;;15.20;61.40;99101.34;1870625;76;22116;-62
2021/05/24 01:53:25;;;;;;;5.55;2.95;;;;;;;15.14;61.87;99107.02;1889943;76;20171;-62
2021/05/24 01:56:01;;;;;;;5.87;2.70;;;;;;;15.07;62.18;99099.68;1870617;76;22112;-62
2021/05/24 01:58:41;;;;;;;4.53;2.45;;;;;;;15.06;62.88;99099.67;1869819;76;22592;-62
2021/05/24 02:01:22;;;;;;;6.20;2.55;;;;;;;15.04;63.14;99098.84;1869771;76;22579;-61
2021/05/24 02:04:08;;;;;;;5.92;2.80;;;;;;;15.00;63.54;99099.72;1760283;80;21180;-61
2021/05/24 02:06:43;;;;;;;7.33;2.60;;;;;;;15.04;64.08;99101.45;1889917;76;22159;-63
2021/05/24 02:09:18;;;;;;;5.05;2.42;;;;;;;15.01;64.73;99109.23;1889940;76;22119;-63
2021/05/24 02:11:53;;;;;;;8.85;3.20;;;;;;;14.96;65.29;99103.64;1870640;76;22117;-60
2021/05/24 02:14:27;;;;;;;8.25;3.12;;;;;;;14.91;65.90;99106.69;1870649;76;22152;-62
2021/05/24 02:17:02;;;;;;;8.83;3.40;;;;;;;14.84;67.99;99107.58;1870667;76;22527;-63
2021/05/24 02:19:37;;;;;;;7.92;3.67;;;;;;;14.72;69.14;99108.92;1890033;76;22152;-63
2021/05/24 02:22:12;;;;;;;6.62;2.72;;;;;;;14.61;69.24;99112.00;1835057;77;22147;-63
2021/05/24 02:24:47;;;;;;;5.00;2.75;;;;;;;14.54;70.16;99109.41;1870729;76;22137;-63
2021/05/24 02:27:22;;;;;;;6.40;3.10;;;;;;;14.46;70.94;99111.57;1870576;76;22174;-63
2021/05/24 02:29:56;;;;;;;8.30;3.33;;;;;;;14.41;71.71;99108.98;1870642;76;22149;-64
2021/05/24 02:32:31;;;;;;;7.08;3.55;;;;;;;14.39;72.59;99103.36;1870640;76;22109;-65
2021/05/24 02:35:27;;;;;;;7.58;3.47;;;;;;;14.36;73.02;99113.31;1877126;75;22229;-63
2021/05/24 02:38:14;;;;;;;6.15;3.40;;;;;;;14.30;73.72;99109.45;1889937;76;22554;-65
2021/05/24 02:40:48;;;;;;;6.28;3.50;;;;;;;14.23;74.20;99112.91;1889932;76;22120;-63
2021/05/24 02:43:43;;;;;;;6.90;3.25;;;;;;;14.17;74.24;99114.20;1862737;75;22185;-63
2021/05/24 02:46:17;;;;;;;9.98;3.58;;;;;;;14.11;74.62;99113.78;1889949;76;22151;-65
2021/05/24 02:48:52;;;;;;;6.05;3.33;;;;;;;14.06;74.34;99122.86;1870656;76;22184;-62
2021/05/24 02:51:27;;;;;;;7.72;3.85;;;;;;;14.03;75.11;99121.57;1854662;76;27944;-63
2021/05/24 02:54:04;;;;;;;8.05;3.67;;;;;;;14.08;75.60;99126.33;1870656;76;22121;-65
2021/05/24 02:56:45;;;;;;;5.62;3.05;;;;;;;14.08;76.09;99121.13;1869751;76;22140;-63
2021/05/24 02:59:19;;;;;;;6.75;3.27;;;;;;;14.05;75.79;99122.44;1870663;76;22149;-62
2021/05/24 03:01:54;;;;;;;7.17;3.45;;;;;;;14.02;76.35;99122.89;1870631;76;22145;-62
2021/05/24 03:04:31;;;;;;;7.95;3.15;;;;;;;13.96;76.79;99130.22;1870703;76;22206;-62
2021/05/24 03:07:16;;;;;;;7.00;3.52;;;;;;;13.84;77.67;99128.91;1827477;77;21592;-63
2021/05/24 03:09:51;;;;;;;5.30;2.08;;;;;;;13.81;78.80;99132.80;1870672;76;22117;-63
2021/05/24 03:12:26;;;;;;;10.55;4.25;;;;;;;13.75;78.51;99132.37;1870252;76;22157;-63
2021/05/24 03:15:00;;;;;;;8.45;4.33;;;;;;;13.72;79.84;99125.90;1870685;76;22202;-65
2021/05/24 03:18:22;;;;;;;7.45;3.65;;;;;;;13.68;80.88;99127.61;1873861;76;27978;-62
2021/05/24 03:20:57;;;;;;;7.30;3.52;;;;;;;13.71;81.13;99136.26;1870670;76;22120;-63
2021/05/24 03:23:32;;;;;;;7.90;3.77;;;;;;;13.68;81.64;99139.27;1870691;76;22116;-62
2021/05/24 03:26:26;;;;;;;10.50;4.05;;;;;;;13.66;83.27;99141.03;1867438;75;22212;-64
2021/05/24 03:29:07;;;;;;;8.55;3.85;;;;;;;13.56;82.70;99140.98;1889926;76;22136;-63
2021/05/24 03:31:54;;;;;;;8.20;3.42;;;;;;;13.42;83.34;99140.53;1861534;77;21122;-62
2021/05/24 03:34:29;;;;;;;6.58;3.70;;;;;;;13.33;83.30;99137.94;1870619;76;22164;-62
2021/05/24 03:37:04;;;;;;;6.72;3.75;;;;;;;13.24;84.24;99136.57;1870609;76;22165;-64
2021/05/24 03:39:39;;;;;;;7.72;3.65;;;;;;;13.18;84.85;99139.16;1870653;76;22149;-62
2021/05/24 03:42:13;;;;;;;7.35;3.00;;;;;;;13.14;85.19;99135.67;1889962;76;22116;-63
2021/05/24 03:44:48;;;;;;;9.68;3.70;;;;;;;13.07;85.44;99131.32;1870675;76;22116;-63
2021/05/24 03:47:23;;;;;;;6.12;3.20;;;;;;;12.99;85.54;99136.48;1870822;76;22132;-63
2021/05/24 03:49:59;;;;;;;5.55;3.00;;;;;;;12.92;85.69;99131.27;1854660;76;28321;-63
2021/05/24 03:52:34;;;;;;;9.00;3.30;;;;;;;12.93;86.08;99130.42;1870645;76;22149;-66
2021/05/24 03:55:11;;;;;;;5.67;3.05;;;;;;;12.89;86.37;99137.73;1870705;76;22153;-63
2021/05/24 03:57:48;;;;;;;6.10;3.22;;;;;;;12.86;86.86;99133.84;1870669;76;22556;-63
2021/05/24 04:00:23;;;;;;;5.92;3.05;;;;;;;12.82;86.87;99139.42;1870697;76;22187;-63
2021/05/24 04:03:09;;;;;;;7.17;3.10;;;;;;;12.76;87.21;99138.97;1827696;77;21126;-64
2021/05/24 04:05:47;;;;;;;10.00;3.37;;;;;;;12.78;87.67;99145.02;1890024;76;22132;-66
2021/05/24 04:08:20;;;;;;;6.75;3.08;;;;;;;12.77;88.02;99152.77;1870647;76;22140;-67
2021/05/24 04:11:06;;;;;;;12.65;3.83;;;;;;;12.73;88.39;99151.91;1827809;77;21245;-68
2021/05/24 04:13:46;;;;;;;7.47;3.45;;;;;;;12.79;88.58;99150.62;1890088;76;22546;-69
2021/05/24 04:16:18;;;;;;;6.10;3.25;;;;;;;12.83;88.67;99152.82;1889876;76;22144;-65
2021/05/24 04:18:53;;;;;;;6.12;3.00;;;;;;;12.83;88.80;99154.55;1870690;76;22663;-66
2021/05/24 04:21:47;;;;;;;6.85;3.45;;;;;;;12.83;88.95;99150.67;1876904;75;22229;-63
2021/05/24 04:24:28;;;;;;;9.55;3.60;;;;;;;12.83;89.35;99158.44;1869880;76;22169;-64
2021/05/24 04:27:03;;;;;;;9.63;4.15;;;;;;;12.83;89.70;99160.59;1870664;76;22112;-64
2021/05/24 04:29:37;;;;;;;7.37;3.60;;;;;;;12.83;89.86;99162.33;1870665;76;22109;-63
2021/05/24 04:32:12;;;;;;;7.97;3.62;;;;;;;12.81;90.12;99163.16;1870640;76;22560;-66
2021/05/24 04:35:09;;;;;;;10.18;3.77;;;;;;;12.80;90.44;99165.77;1863453;75;22196;-69
2021/05/24 04:37:49;;;;;;;9.50;3.90;;;;;;;12.80;90.83;99167.92;1870749;76;22516;-64
2021/05/24 04:40:36;;;;;;;8.25;3.58;;;;;;;12.75;90.95;99170.05;1827515;78;21130;-65
2021/05/24 04:43:32;;;;;;;11.48;3.77;;;;;;;12.77;91.59;99169.20;1862661;75;22624;-65
2021/05/24 04:46:12;;;;;;;9.13;3.85;;;;;;;12.73;91.91;99167.88;1890045;76;22167;-66
2021/05/24 04:48:47;;;;;;;8.45;3.37;;;;;;;12.70;92.46;99162.25;1870593;76;22135;-64
2021/05/24 04:51:28;;;;;;;7.28;4.03;;;;;;;12.68;92.65;99171.73;1869753;76;22157;-64
2021/05/24 04:54:08;;;;;;;8.08;3.77;;;;;;;12.71;92.98;99173.03;1869793;76;22128;-63
2021/05/24 04:56:43;;;;;;;6.55;3.52;;;;;;;12.74;93.28;99178.66;1889929;76;22543;-64
2021/05/24 04:59:18;;;;;;;6.87;3.80;;;;;;;12.75;93.53;99183.00;1870649;76;22137;-62
2021/05/24 05:01:52;;;;;;;9.13;4.08;;;;;;;12.77;93.73;99182.55;1870643;76;22573;-63
2021/05/24 05:04:27;;;;;;;9.00;4.10;;;;;;;12.82;94.02;99187.33;1870602;76;22202;-64
2021/05/24 05:07:02;;;;;;;7.97;3.72;;;;;;;12.86;94.17;99185.64;1889894;76;22484;-63
2021/05/24 05:09:36;;;;;;;6.70;3.98;;;;;;;12.88;94.28;99195.59;1870686;76;22112;-64
2021/05/24 05:12:22;;;;;;;10.20;4.10;;;;;;;12.85;94.50;99197.73;1760491;81;21106;-68
2021/05/24 05:15:05;;;;;;;8.93;3.92;;;;;;;12.92;94.65;99203.80;1869810;76;22150;-70
2021/05/24 05:17:39;;;;;;;7.95;4.00;;;;;;;12.94;94.73;99205.97;1889928;76;22218;-66
2021/05/24 05:20:14;;;;;;;7.00;4.70;;;;;;;12.96;94.73;99207.70;1870647;76;22574;-64
2021/05/24 05:22:55;;;;;;;6.55;3.55;;;;;;;12.94;94.37;99213.73;1869766;76;22617;-66
2021/05/24 05:25:30;;;;;;;5.92;3.77;;;;;;;12.92;94.35;99217.61;1870591;76;22219;-66
2021/05/24 05:28:05;;;;;;;6.92;3.55;;;;;;;12.90;94.25;99221.94;1870674;76;22129;-66
2021/05/24 05:30:52;;;;;;;5.78;3.55;;;;;;;12.86;94.14;99225.79;1827515;77;21146;-67
2021/05/24 05:33:27;;;;;;;9.20;4.10;;;;;;;12.90;94.08;99227.52;1889940;76;22119;-65
2021/05/24 05:36:02;;;;;;;6.78;3.70;;;;;;;12.88;94.07;99226.67;1870641;76;22212;-67
2021/05/24 05:38:36;;;;;;;10.72;3.75;;;;;;;12.86;94.25;99232.27;1870704;76;22160;-67
2021/05/24 05:41:23;;;;;;;6.92;4.08;;;;;;;12.78;94.24;99246.03;1827097;78;21127;-64
2021/05/24 05:44:06;;;;;;;6.22;3.22;;;;;;;12.82;94.57;99250.78;1864078;76;22206;-65
2021/05/24 05:46:47;;;;;;;10.03;4.20;;;;;;;12.84;94.51;99253.40;1868299;76;22674;-66
2021/05/24 05:49:41;;;;;;;8.20;4.00;;;;;;;12.84;94.26;99254.69;1849676;76;22244;-67
2021/05/24 05:52:17;;;;;;;7.30;3.60;;;;;;;12.86;94.20;99262.05;1870089;76;22169;-66
2021/05/24 05:54:52;;;;;;;8.68;3.83;;;;;;;12.92;94.39;99265.96;1857223;76;22549;-65
2021/05/24 05:57:26;;;;;;;6.10;3.33;;;;;;;12.98;94.09;99263.43;1851502;76;22155;-67
2021/05/24 06:00:01;;;;;;;7.28;3.30;;;;;;;13.02;93.95;99268.61;1855000;76;22189;-67
2021/05/24 06:02:43;;;;;;;6.50;3.50;;;;;;;13.06;93.39;99274.70;1869681;76;22172;-68
2021/05/24 06:05:20;;;;;;;10.35;3.10;;;;;;;13.12;93.29;99285.52;1868489;76;22172;-67
2021/05/24 06:07:55;;;;;;;6.28;3.10;;;;;;;13.18;93.06;99277.80;1849630;76;27952;-65
2021/05/24 06:10:31;;;;;;;6.35;2.92;;;;;;;13.26;92.65;99286.47;1861127;76;22208;-65
2021/05/24 06:13:06;;;;;;;7.53;3.35;;;;;;;13.32;92.40;99283.94;1842431;76;28103;-64
2021/05/24 06:15:47;;;;;;;6.12;3.10;;;;;;;13.45;92.22;99284.86;1847753;76;22212;-67
2021/05/24 06:18:22;;;;;;;8.40;3.62;;;;;;;13.51;91.90;99282.31;1856190;76;22182;-66
2021/05/24 06:20:58;;;;;;;8.58;3.62;;;;;;;13.54;91.04;99286.64;1817416;77;20287;-66
2021/05/24 06:23:32;;;;;;;6.53;3.30;;;;;;;13.58;91.23;99285.77;1863145;76;22556;-64
2021/05/24 06:26:07;;;;;;;5.95;3.10;;;;;;;13.62;91.01;99292.28;1866489;76;22164;-65
2021/05/24 06:28:41;;;;;;;5.42;2.17;;;;;;;13.65;90.07;99297.91;1850725;76;22175;-65
2021/05/24 06:31:16;;;;;;;7.70;2.67;;;;;;;13.65;89.01;99302.66;1848722;76;22156;-65
2021/05/24 06:33:51;;;;;;;4.37;2.50;;;;;;;13.71;88.47;99316.52;1867404;76;22151;-68
2021/05/24 06:36:25;;;;;;;5.22;2.35;;;;;;;13.73;88.22;99318.25;1852423;76;22151;-66
2021/05/24 06:39:01;;;;;;;4.70;2.45;;;;;;;13.71;86.92;99321.70;1855475;76;22594;-64
2021/05/24 06:41:37;;;;;;;4.17;2.10;;;;;;;13.68;86.75;99320.82;1837036;76;28069;-66
2021/05/24 06:44:11;;;;;;;4.00;2.08;;;;;;;13.67;85.43;99328.18;1851844;76;22203;-64
2021/05/24 06:46:48;;;;;;;4.90;2.00;;;;;;;13.66;85.52;99339.42;1861637;76;22250;-65
2021/05/24 06:49:23;;;;;;;12.25;2.37;;;;;;;13.68;85.81;99335.09;1858130;76;24177;-68
2021/05/24 06:51:57;;;;;;;3.70;1.72;;;;;;;13.68;85.23;99344.16;1837422;76;22244;-66
2021/05/24 06:54:32;;;;;;;12.30;2.20;;;;;;;13.64;84.71;99346.77;1883588;76;22191;-66
2021/05/24 06:57:07;;;;;;;4.78;1.90;;;;;;;13.59;84.34;99354.52;1854447;76;22690;-66
2021/05/24 06:59:42;;;;;;;3.67;1.80;;;;;;;13.58;84.72;99351.46;1852646;76;22199;-65
2021/05/24 07:02:36;;;;;;;4.12;2.27;;;;;;;13.56;83.74;99355.80;1852616;76;22564;-66
2021/05/24 07:05:17;;;;;;;4.67;1.70;;;;;;;13.56;84.93;99366.17;1851022;76;22651;-68
2021/05/24 07:07:52;;;;;;;4.15;1.98;;;;;;;13.60;84.40;99354.94;1846867;76;22218;-68
2021/05/24 07:10:26;;;;;;;4.12;1.67;;;;;;;13.66;83.69;99360.17;1861726;76;23340;-67
2021/05/24 07:13:04;;;;;;;4.10;1.80;;;;;;;13.70;84.11;99358.88;1846178;76;22660;-66
2021/05/24 07:15:38;;;;;;;3.40;1.70;;;;;;;13.82;84.17;99366.73;1850088;76;22215;-64
2021/05/24 07:18:13;;;;;;;3.75;1.80;;;;;;;13.89;83.24;99372.35;1854467;76;22683;-66
2021/05/24 07:20:48;;;;;;;3.72;1.60;;;;;;;14.03;82.82;99374.58;1854630;76;22217;-65
2021/05/24 07:23:23;;;;;;;5.42;2.22;;;;;;;14.13;82.16;99370.73;1841594;76;27979;-65
2021/05/24 07:26:09;;;;;;;4.40;1.72;;;;;;;14.28;81.26;99377.27;1795103;78;21118;-65
2021/05/24 07:28:43;;;;;;;4.12;1.98;;;;;;;14.57;81.16;99373.89;1874750;76;22148;-66
2021/05/24 07:31:18;;;;;;;6.05;2.27;;;;;;;14.79;79.47;99378.23;1852589;76;22183;-67
2021/05/24 07:33:54;;;;;;;3.75;1.98;;;;;;;14.93;78.45;99375.63;1848302;76;22192;-66
2021/05/24 07:36:29;;;;;;;2.30;1.20;;;;;;;15.02;78.34;99376.08;1861486;76;22163;-67
2021/05/24 07:39:10;;;;;;;2.90;1.50;;;;;;;15.13;77.20;99374.33;1868757;76;22610;-66
2021/05/24 07:41:45;;;;;;;4.70;1.90;;;;;;;15.49;77.40;99366.89;1877330;76;22151;-66
2021/05/24 07:44:20;;;;;;;3.65;1.67;;;;;;;15.75;76.53;99375.98;1852155;76;22181;-65
2021/05/24 07:46:57;;;;;;;4.47;1.85;;;;;;;16.01;76.30;99377.61;1837510;76;27905;-68
2021/05/24 07:49:32;;;;;;;4.85;1.98;;;;;;;16.39;74.71;99381.31;1859025;76;22176;-65
2021/05/24 16:39:20;;;;;;;5.28;1.30;;;;;;;19.01;50.84;99597.32;1834741;77;22157;-66
2021/05/24 16:41:54;;;;;;;5.83;1.60;;;;;;;18.89;51.36;99605.77;1873820;76;27916;-66
2021/05/24 16:44:29;;;;;;;6.12;1.85;;;;;;;18.86;51.51;99607.98;1889821;76;22175;-64
2021/05/24 16:47:05;;;;;;;6.22;1.67;;;;;;;18.76;51.78;99607.22;1854640;76;28320;-66
2021/05/24 16:49:41;;;;;;;5.28;1.77;;;;;;;18.76;52.08;99607.22;1889864;76;22200;-66
2021/05/24 16:52:15;;;;;;;3.02;1.30;;;;;;;18.75;52.23;99609.42;1870578;76;22555;-64
2021/05/24 16:54:50;;;;;;;4.50;1.40;;;;;;;18.75;52.18;99612.04;1870509;76;22154;-66
2021/05/24 16:57:24;;;;;;;2.42;1.30;;;;;;;18.72;52.17;99612.47;1870607;76;22592;-66
2021/05/24 16:59:59;;;;;;;4.53;1.20;;;;;;;18.64;52.42;99606.88;1870512;76;22172;-67
2021/05/24 17:02:53;;;;;;;5.25;1.80;;;;;;;18.53;52.65;99606.59;1881079;75;22164;-64
2021/05/24 17:05:36;;;;;;;5.28;1.50;;;;;;;18.41;53.04;99612.81;1869578;76;22180;-66
2021/05/24 17:08:11;;;;;;;3.55;1.52;;;;;;;18.31;53.28;99612.03;1889829;76;22147;-66
2021/05/24 17:10:53;;;;;;;5.55;1.95;;;;;;;18.20;53.42;99618.67;1869665;76;22191;-66
2021/05/24 17:13:28;;;;;;;6.83;1.92;;;;;;;18.12;53.76;99623.11;1836881;76;38334;-66
2021/05/24 17:16:05;;;;;;;5.00;1.70;;;;;;;18.11;54.00;99628.34;1851761;76;22190;-66
2021/05/24 17:18:45;;;;;;;10.15;1.70;;;;;;;18.00;54.38;99623.22;1854952;76;22305;-66
2021/05/24 17:21:25;;;;;;;3.17;1.50;;;;;;;17.88;54.68;99624.17;1889870;76;22179;-65
2021/05/24 17:23:57;;;;;;;6.15;1.98;;;;;;;17.79;54.77;99634.27;1873728;76;27951;-66
2021/05/24 17:26:32;;;;;;;7.65;2.10;;;;;;;17.77;54.99;99625.98;1834915;77;22152;-67
2021/05/24 17:29:18;;;;;;;4.78;1.72;;;;;;;17.67;55.17;99636.06;1728494;83;21600;-66
2021/05/24 17:31:53;;;;;;;6.30;2.05;;;;;;;17.62;55.45;99643.06;1870542;76;22199;-66
2021/05/24 17:34:27;;;;;;;4.60;1.92;;;;;;;17.52;55.78;99640.50;1870541;76;22175;-66
2021/05/24 17:37:04;;;;;;;3.33;1.50;;;;;;;17.46;56.05;99644.47;1870562;76;22180;-66
2021/05/24 17:39:39;;;;;;;4.83;1.55;;;;;;;17.40;56.16;99648.40;1870557;76;22145;-66
2021/05/24 17:42:20;;;;;;;5.00;2.15;;;;;;;17.31;56.41;99641.95;1869679;76;22198;-66
2021/05/24 17:44:55;;;;;;;4.83;1.98;;;;;;;17.22;56.71;99643.28;1870598;76;22251;-65
2021/05/24 17:47:35;;;;;;;6.45;1.80;;;;;;;17.17;57.00;99638.53;1889843;76;22168;-66
2021/05/24 17:50:20;;;;;;;3.87;1.52;;;;;;;17.09;57.30;99630.75;1870581;76;22555;-67
2021/05/24 17:53:05;;;;;;;3.05;1.65;;;;;;;16.97;57.52;99631.69;1789757;78;21286;-66
2021/05/24 17:55:43;;;;;;;8.38;1.87;;;;;;;16.95;57.83;99641.70;1870496;76;22254;-66
2021/05/24 17:58:17;;;;;;;4.60;2.17;;;;;;;16.87;58.02;99643.89;1870750;76;22144;-66
2021/05/24 18:00:53;;;;;;;6.95;1.82;;;;;;;16.83;58.29;99642.59;1870443;76;22172;-66
2021/05/24 18:03:28;;;;;;;6.28;2.20;;;;;;;16.77;58.58;99638.24;1834993;77;22160;-65
2021/05/24 18:06:05;;;;;;;7.60;2.70;;;;;;;16.74;58.85;99647.80;1849853;76;28334;-66
2021/05/24 18:08:41;;;;;;;7.47;2.30;;;;;;;16.76;59.22;99653.88;1870259;76;22167;-65
2021/05/24 18:11:16;;;;;;;5.80;2.40;;;;;;;16.72;59.34;99655.64;1889950;76;22136;-65
2021/05/24 18:13:59;;;;;;;4.83;2.12;;;;;;;16.67;59.41;99660.86;1869639;76;22588;-66
2021/05/24 18:16:38;;;;;;;6.08;1.95;;;;;;;16.61;59.77;99664.80;1869691;76;22586;-67
2021/05/24 18:19:12;;;;;;;5.17;2.62;;;;;;;16.57;59.87;99664.36;1888894;76;22144;-66
2021/05/24 18:21:46;;;;;;;5.20;2.02;;;;;;;16.53;60.19;99657.41;1889839;76;22144;-66
2021/05/24 18:24:27;;;;;;;5.95;2.40;;;;;;;16.46;60.38;99656.56;1889789;76;22151;-65
2021/05/24 18:27:02;;;;;;;6.03;2.20;;;;;;;16.41;60.57;99661.33;1870615;76;22135;-66
2021/05/24 18:29:37;;;;;;;5.05;2.10;;;;;;;16.37;60.65;99668.73;1870774;76;22145;-66
2021/05/24 18:32:19;;;;;;;5.47;2.33;;;;;;;16.34;60.90;99672.65;1869720;76;22158;-65
2021/05/24 18:34:54;;;;;;;5.78;2.25;;;;;;;16.33;61.13;99680.02;1870596;76;22527;-66
2021/05/24 18:37:29;;;;;;;7.83;3.70;;;;;;;16.34;61.01;99684.38;1870557;76;22222;-65
2021/05/24 18:40:07;;;;;;;7.33;2.52;;;;;;;16.35;60.91;99691.30;1889843;76;22245;-65
2021/05/24 18:42:49;;;;;;;5.95;2.50;;;;;;;16.33;60.94;99693.03;1869715;76;22106;-65
2021/05/24 18:45:24;;;;;;;6.62;2.55;;;;;;;16.30;61.07;99695.21;1870572;76;20212;-66
2021/05/24 18:48:19;;;;;;;5.62;3.12;;;;;;;16.29;61.10;99700.00;1881783;75;22627;-65
2021/05/24 18:50:54;;;;;;;7.60;3.08;;;;;;;16.24;61.26;99702.59;1870525;76;22144;-65
2021/05/24 18:53:37;;;;;;;7.78;3.87;;;;;;;16.24;61.42;99702.59;1889819;76;22152;-66
2021/05/24 18:56:12;;;;;;;6.17;3.25;;;;;;;16.25;61.69;99709.53;1846199;76;22172;-65
2021/05/24 18:58:48;;;;;;;6.97;3.02;;;;;;;16.25;61.82;99712.13;1889880;76;22163;-66
2021/05/24 19:01:28;;;;;;;7.17;3.50;;;;;;;16.26;61.94;99719.09;1869750;76;22161;-65
2021/05/24 19:07:16;;;;;;;8.43;4.20;;;;;;;16.41;62.49;99719.94;1889886;76;22124;-66
2021/05/24 19:09:57;;;;;;;11.12;4.03;;;;;;;16.52;62.44;99718.66;1869692;76;22154;-65
2021/05/24 19:12:32;;;;;;;12.15;6.15;;;;;;;16.67;62.44;99730.36;1870570;76;22128;-64
2021/05/24 19:15:09;;;;;;;14.25;6.42;;;;;;;16.80;63.01;99728.64;1889908;76;22587;-64
2021/05/24 19:17:42;;;;;;;12.47;5.10;;;;;;;16.65;63.78;99728.19;1870840;76;22121;-65
2021/05/24 19:20:17;;;;;;;9.73;4.83;;;;;;;16.63;63.47;99726.02;1870641;76;22139;-66
2021/05/24 19:22:53;;;;;;;15.70;4.67;;;;;;;16.82;63.00;99733.42;1854538;76;27885;-66
2021/05/24 19:25:29;;;;;;;10.50;4.45;;;;;;;17.03;62.34;99735.95;1854453;76;27937;-65
2021/05/24 19:28:19;;;;;;;10.43;4.55;;;;;;;17.03;62.04;99734.66;1827773;77;21253;-64
2021/05/24 19:30:55;;;;;;;20.60;7.03;;;;;;;17.02;62.10;99730.73;1870587;76;22583;-66
2021/05/24 19:33:30;;;;;;;16.57;4.45;;;;;;;16.92;62.32;99735.99;1870600;76;20097;-64
2021/05/24 19:36:07;;;;;;;13.98;5.33;;;;;;;16.99;62.24;99730.30;1889909;76;22112;-65
2021/05/24 19:38:41;;;;;;;16.23;6.80;;;;;;;16.93;62.16;99735.11;1854891;76;27932;-65
2021/05/24 19:41:34;;;;;;;11.35;4.83;;;;;;;16.59;63.78;99738.19;1855119;76;22595;-66
2021/05/24 19:45:24;;;;;;;12.73;3.87;;;;;;;16.25;64.19;99736.88;1794254;78;21770;-66
2021/05/24 20:25:52;;;;;;;11.30;3.15;;;;;;;15.57;66.75;99731.09;1856787;76;22587;-64
2021/05/24 20:28:27;;;;;;;5.95;2.72;;;;;;;15.54;66.59;99724.58;1869513;76;22188;-64
2021/05/24 20:31:02;;;;;;;5.83;2.80;;;;;;;15.53;66.69;99728.92;1870445;76;22152;-65
2021/05/24 20:33:37;;;;;;;7.78;2.25;;;;;;;15.51;66.62;99724.14;1852311;76;22231;-64
2021/05/24 20:36:19;;;;;;;4.95;2.45;;;;;;;15.50;66.68;99722.41;1854852;76;22184;-64
2021/05/24 20:38:53;;;;;;;7.45;3.02;;;;;;;15.47;66.78;99728.91;1852001;76;22136;-62
2021/05/24 20:41:29;;;;;;;7.72;2.85;;;;;;;15.45;66.82;99725.88;1857072;76;22613;-64
2021/05/24 20:44:06;;;;;;;6.67;3.62;;;;;;;15.41;66.83;99728.44;1872573;76;22151;-63
2021/05/24 20:46:41;;;;;;;7.10;2.95;;;;;;;15.37;67.13;99729.31;1858985;76;22577;-64
2021/05/24 20:49:26;;;;;;;8.15;2.90;;;;;;;15.28;67.33;99724.05;1836714;77;21130;-65
2021/05/24 20:52:02;;;;;;;7.87;3.40;;;;;;;15.29;67.60;99723.21;1873933;76;27917;-62
2021/05/24 20:54:37;;;;;;;7.83;2.98;;;;;;;15.30;67.74;99721.48;1889804;76;22183;-62
2021/05/24 20:57:12;;;;;;;6.03;2.87;;;;;;;15.26;67.56;99714.52;1854498;76;27910;-62
2021/05/24 20:59:50;;;;;;;9.30;2.90;;;;;;;15.26;67.51;99714.52;1870528;76;22573;-64
2021/05/24 21:02:22;;;;;;;8.48;3.00;;;;;;;15.22;67.83;99721.44;1854913;76;27834;-62
2021/05/24 21:04:57;;;;;;;7.08;2.52;;;;;;;15.24;67.80;99716.23;1890048;76;22176;-62
2021/05/24 21:07:33;;;;;;;6.70;2.70;;;;;;;15.21;67.79;99724.89;1870624;76;22156;-62
2021/05/24 21:10:16;;;;;;;6.97;2.47;;;;;;;15.17;67.71;99711.02;1890047;76;22610;-62
2021/05/24 21:12:52;;;;;;;10.90;2.72;;;;;;;15.21;67.79;99706.69;1889924;76;22143;-61
2021/05/24 21:15:26;;;;;;;6.33;2.87;;;;;;;15.21;67.62;99707.98;1854802;76;38184;-61
2021/05/24 21:18:10;;;;;;;5.92;2.45;;;;;;;15.23;67.40;99712.77;1869871;76;22213;-61
2021/05/24 21:20:56;;;;;;;4.87;2.30;;;;;;;15.16;67.52;99719.69;1827541;78;21153;-62
2021/05/24 21:23:31;;;;;;;6.17;2.80;;;;;;;15.22;67.50;99712.78;1870634;76;22109;-63
2021/05/24 21:26:07;;;;;;;6.05;2.72;;;;;;;15.25;67.15;99714.09;1873823;76;28301;-61
2021/05/24 21:28:53;;;;;;;6.08;2.90;;;;;;;15.23;67.09;99720.56;1861336;77;21082;-62
2021/05/24 21:31:29;;;;;;;4.97;2.12;;;;;;;15.28;67.26;99719.30;1870647;76;22112;-63
2021/05/24 21:36:39;;;;;;;4.95;2.40;;;;;;;15.38;67.19;99717.16;1889915;76;22120;-60
2021/05/24 21:39:20;;;;;;;4.90;2.42;;;;;;;15.40;66.90;99712.41;1869802;76;22149;-64
2021/05/24 21:41:55;;;;;;;6.92;2.80;;;;;;;15.42;66.93;99716.33;1873857;76;28305;-63
2021/05/24 21:44:30;;;;;;;7.30;2.60;;;;;;;15.54;66.92;99718.08;1870691;76;22113;-63
2021/05/24 21:47:05;;;;;;;5.33;2.42;;;;;;;15.61;66.53;99715.94;1889947;76;22155;-62
2021/05/24 21:49:40;;;;;;;6.33;2.15;;;;;;;15.62;66.13;99725.46;1870565;76;22145;-63
2021/05/24 21:52:15;;;;;;;4.55;2.40;;;;;;;15.51;65.59;99717.63;1889955;76;22167;-62
2021/05/24 21:54:49;;;;;;;5.67;2.52;;;;;;;15.37;65.29;99718.91;1870627;76;22119;-62